createdAt,value
2018-12-12T00:02:22.291Z,98415.41
2018-12-12T00:04:51.069Z,98409.70
2018-12-12T00:07:20.819Z,98413.67
2018-12-12T00:09:49.626Z,98408.73
2018-12-12T00:12:18.328Z,98418.83
2018-12-12T00:14:47.059Z,98411.97
2018-12-12T00:17:15.676Z,98417.15
2018-12-12T00:19:44.374Z,98410.67
2018-12-12T00:22:13.087Z,98419.69
2018-12-12T00:24:41.772Z,98416.15
2018-12-12T00:27:10.563Z,98415.72
2018-12-12T00:29:39.255Z,98418.52
2018-12-12T00:32:07.971Z,98415.32
2018-12-12T00:34:36.768Z,98418.95
2018-12-12T00:37:05.379Z,98417.05
2018-12-12T00:39:34.137Z,98421.00
2018-12-12T00:42:02.840Z,98411.69
2018-12-12T00:44:31.532Z,98416.63
2018-12-12T00:47:00.466Z,98412.87
2018-12-12T00:49:29.125Z,98416.78
2018-12-12T00:51:57.808Z,98421.06
2018-12-12T00:54:26.565Z,98422.14
2018-12-12T00:56:55.300Z,98425.06
2018-12-12T00:59:24.008Z,98423.79
2018-12-12T01:01:52.788Z,98414.58
2018-12-12T01:04:22.133Z,98424.78
2018-12-12T01:06:50.808Z,98430.47
2018-12-12T01:09:19.755Z,98428.78
2018-12-12T01:11:53.778Z,98423.97
2018-12-12T01:14:22.498Z,98429.71
2018-12-12T01:16:51.209Z,98428.78
2018-12-12T01:19:19.936Z,98431.70
2018-12-12T01:21:48.652Z,98429.42
2018-12-12T01:24:17.280Z,98439.30
2018-12-12T01:26:46.024Z,98434.92
2018-12-12T01:29:14.852Z,98431.58
2018-12-12T01:31:43.549Z,98426.57
2018-12-12T01:34:12.294Z,98433.37
2018-12-12T01:36:40.997Z,98441.07
2018-12-12T01:39:09.716Z,98433.75
2018-12-12T01:41:38.410Z,98429.44
2018-12-12T01:44:07.133Z,98429.74
2018-12-12T01:46:35.900Z,98427.82
2018-12-12T01:49:04.748Z,98429.77
2018-12-12T01:51:33.444Z,98429.29
2018-12-12T01:54:02.178Z,98430.55
2018-12-12T01:56:30.868Z,98431.70
2018-12-12T01:58:59.667Z,98425.77
2018-12-12T02:01:28.440Z,98422.93
2018-12-12T02:03:57.160Z,98416.25
2018-12-12T02:06:26.016Z,98422.16
2018-12-12T02:08:54.972Z,98431.20
2018-12-12T02:11:23.680Z,98424.55
2018-12-12T02:13:52.499Z,98428.76
2018-12-12T02:16:21.619Z,98431.41
2018-12-12T02:18:50.402Z,98431.21
2018-12-12T02:21:19.166Z,98434.70
2018-12-12T02:23:47.891Z,98431.73
2018-12-12T02:26:16.628Z,98432.64
2018-12-12T02:28:45.580Z,98431.59
2018-12-12T02:31:14.433Z,98432.02
2018-12-12T02:33:43.200Z,98432.55
2018-12-12T02:36:12.083Z,98431.87
2018-12-12T02:38:40.797Z,98426.93
2018-12-12T02:41:09.531Z,98421.15
2018-12-12T02:43:38.272Z,98422.83
2018-12-12T02:46:06.957Z,98428.48
2018-12-12T02:48:35.771Z,98431.29
2018-12-12T02:51:04.818Z,98419.96
2018-12-12T02:53:33.580Z,98424.73
2018-12-12T02:56:02.379Z,98419.26
2018-12-12T02:58:31.216Z,98419.72
2018-12-12T03:00:59.998Z,98416.66
2018-12-12T03:03:28.788Z,98418.38
2018-12-12T03:05:57.590Z,98421.15
2018-12-12T03:08:26.388Z,98410.48
2018-12-12T03:10:55.158Z,98420.59
2018-12-12T03:13:24.044Z,98416.42
2018-12-12T03:15:52.757Z,98422.77
2018-12-12T03:18:21.476Z,98425.71
2018-12-12T03:20:50.203Z,98421.61
2018-12-12T03:23:19.016Z,98421.05
2018-12-12T03:25:47.785Z,98417.60
2018-12-12T03:28:16.511Z,98417.19
2018-12-12T03:30:45.217Z,98423.05
2018-12-12T03:33:13.927Z,98418.91
2018-12-12T03:35:42.630Z,98422.06
2018-12-12T03:38:11.342Z,98427.59
2018-12-12T03:40:40.537Z,98431.05
2018-12-12T03:43:09.604Z,98432.48
2018-12-12T03:45:38.283Z,98425.89
2018-12-12T03:48:07.096Z,98433.70
2018-12-12T03:50:35.964Z,98433.84
2018-12-12T03:53:04.830Z,98434.52
2018-12-12T03:55:33.507Z,98433.67
2018-12-12T03:58:02.223Z,98432.27
2018-12-12T04:00:31.021Z,98429.22
2018-12-12T04:02:59.827Z,98432.09
2018-12-12T04:05:28.523Z,98433.00
2018-12-12T04:07:57.405Z,98435.21
2018-12-12T04:10:26.172Z,98437.31
2018-12-12T04:12:54.912Z,98432.34
2018-12-12T04:15:23.661Z,98435.61
2018-12-12T04:17:52.453Z,98435.56
2018-12-12T04:20:21.192Z,98435.19
2018-12-12T04:22:49.847Z,98437.22
2018-12-12T04:25:18.543Z,98435.43
2018-12-12T04:27:47.258Z,98441.50
2018-12-12T04:30:15.856Z,98439.56
2018-12-12T04:32:44.701Z,98439.98
2018-12-12T04:35:13.470Z,98445.56
2018-12-12T04:37:42.226Z,98440.09
2018-12-12T04:40:11.033Z,98436.66
2018-12-12T04:42:39.856Z,98439.14
2018-12-12T04:45:08.568Z,98440.12
2018-12-12T04:47:37.265Z,98446.23
2018-12-12T04:50:06.252Z,98450.42
2018-12-12T04:52:35.005Z,98447.17
2018-12-12T04:55:03.831Z,98450.64
2018-12-12T04:57:32.689Z,98460.25
2018-12-12T05:00:01.400Z,98456.23
2018-12-12T05:02:30.278Z,98461.48
2018-12-12T05:04:59.220Z,98459.03
2018-12-12T05:07:27.975Z,98458.30
2018-12-12T05:09:56.719Z,98457.20
2018-12-12T05:12:25.452Z,98458.23
2018-12-12T05:14:54.143Z,98458.61
2018-12-12T05:17:22.876Z,98457.28
2018-12-12T05:19:51.643Z,98468.47
2018-12-12T05:22:20.350Z,98460.23
2018-12-12T05:24:49.024Z,98457.17
2018-12-12T05:27:17.897Z,98465.55
2018-12-12T05:29:46.758Z,98460.30
2018-12-12T05:32:15.498Z,98463.98
2018-12-12T05:34:44.199Z,98463.70
2018-12-12T05:37:12.952Z,98468.92
2018-12-12T05:39:41.590Z,98470.82
2018-12-12T05:42:10.483Z,98467.70
2018-12-12T05:44:39.231Z,98467.41
2018-12-12T05:47:08.032Z,98471.69
2018-12-12T05:49:36.826Z,98473.62
2018-12-12T05:52:05.635Z,98477.77
2018-12-12T05:54:34.404Z,98480.26
2018-12-12T05:57:03.121Z,98482.02
2018-12-12T05:59:31.869Z,98485.13
2018-12-12T06:02:00.718Z,98483.59
2018-12-12T06:04:29.479Z,98486.61
2018-12-12T06:06:58.237Z,98482.64
2018-12-12T06:09:26.943Z,98487.31
2018-12-12T06:11:55.795Z,98482.09
2018-12-12T06:14:24.712Z,98484.40
2018-12-12T06:16:53.342Z,98484.55
2018-12-12T06:19:21.961Z,98486.44
2018-12-12T06:21:50.674Z,98483.77
2018-12-12T06:24:19.462Z,98479.34
2018-12-12T06:26:48.252Z,98488.58
2018-12-12T06:29:16.955Z,98493.59
2018-12-12T06:31:45.576Z,98487.11
2018-12-12T06:34:14.412Z,98492.81
2018-12-12T06:36:43.183Z,98492.25
2018-12-12T06:39:11.894Z,98494.47
2018-12-12T06:41:40.699Z,98492.83
2018-12-12T06:44:09.399Z,98495.06
2018-12-12T06:46:38.068Z,98495.59
2018-12-12T06:49:06.775Z,98495.48
2018-12-12T06:51:35.514Z,98505.49
2018-12-12T06:54:04.311Z,98505.49
2018-12-12T06:56:33.235Z,98504.75
2018-12-12T06:59:01.922Z,98502.16
2018-12-12T07:01:30.679Z,98505.70
2018-12-12T07:03:59.465Z,98511.56
2018-12-12T07:06:28.171Z,98516.55
2018-12-12T07:08:57.082Z,98521.06
2018-12-12T07:11:25.866Z,98518.16
2018-12-12T07:13:54.564Z,98518.61
2018-12-12T07:16:23.344Z,98517.50
2018-12-12T07:18:52.094Z,98518.91
2018-12-12T07:21:20.930Z,98513.95
2018-12-12T07:23:49.627Z,98520.16
2018-12-12T07:26:18.485Z,98520.55
2018-12-12T07:28:47.302Z,98513.41
2018-12-12T07:31:16.051Z,98514.09
2018-12-12T07:33:44.808Z,98512.31
2018-12-12T07:36:13.639Z,98519.70
2018-12-12T07:38:42.336Z,98513.89
2018-12-12T07:41:11.212Z,98521.92
2018-12-12T07:43:39.905Z,98516.17
2018-12-12T07:46:08.659Z,98514.37
2018-12-12T07:48:37.372Z,98516.63
2018-12-12T07:51:06.183Z,98517.13
2018-12-12T07:53:34.918Z,98516.34
2018-12-12T07:56:03.773Z,98515.91
2018-12-12T07:58:32.543Z,98523.94
2018-12-12T08:01:02.615Z,98518.34
2018-12-12T08:03:31.618Z,98520.58
2018-12-12T08:06:00.443Z,98527.77
2018-12-12T08:08:29.341Z,98525.86
2018-12-12T08:10:58.457Z,98529.13
2018-12-12T08:13:27.131Z,98536.83
2018-12-12T08:15:56.169Z,98536.81
2018-12-12T08:18:24.835Z,98534.17
2018-12-12T08:20:53.550Z,98535.94
2018-12-12T08:23:22.699Z,98534.61
2018-12-12T08:25:51.564Z,98540.52
2018-12-12T08:28:20.228Z,98536.41
2018-12-12T08:30:48.857Z,98535.78
2018-12-12T08:33:17.537Z,98536.83
2018-12-12T08:35:46.399Z,98542.55
2018-12-12T08:38:15.176Z,98545.48
2018-12-12T08:40:43.888Z,98538.75
2018-12-12T08:43:12.619Z,98547.03
2018-12-12T08:45:41.236Z,98549.12
2018-12-12T08:48:09.905Z,98549.84
2018-12-12T08:50:38.687Z,98545.32
2018-12-12T08:53:07.325Z,98549.64
2018-12-12T08:55:36.711Z,98554.84
2018-12-12T08:58:05.425Z,98557.61
2018-12-12T09:00:34.313Z,98557.64
2018-12-12T09:03:03.088Z,98554.59
2018-12-12T09:05:31.820Z,98555.20
2018-12-12T09:08:00.823Z,98561.13
2018-12-12T09:10:29.895Z,98562.88
2018-12-12T09:12:58.573Z,98565.08
2018-12-12T09:15:27.368Z,98572.67
2018-12-12T09:17:55.962Z,98569.13
2018-12-12T09:20:24.711Z,98563.05
2018-12-12T09:22:53.478Z,98572.98
2018-12-12T09:25:22.123Z,98568.59
2018-12-12T09:27:50.751Z,98577.37
2018-12-12T09:30:19.459Z,98573.05
2018-12-12T09:32:48.271Z,98573.88
2018-12-12T09:35:16.905Z,98567.67
2018-12-12T09:37:45.679Z,98566.97
2018-12-12T09:40:14.413Z,98572.22
2018-12-12T09:42:43.010Z,98574.47
2018-12-12T09:45:11.695Z,98563.92
2018-12-12T09:47:40.565Z,98561.64
2018-12-12T09:50:09.582Z,98567.33
2018-12-12T09:52:38.320Z,98565.41
2018-12-12T09:55:07.194Z,98559.64
2018-12-12T09:57:35.795Z,98567.76
2018-12-12T10:00:04.884Z,98563.61
2018-12-12T10:02:33.720Z,98564.28
2018-12-12T10:05:02.332Z,98563.61
2018-12-12T10:07:30.978Z,98563.75
2018-12-12T10:09:59.715Z,98558.66
2018-12-12T10:12:28.350Z,98555.11
2018-12-12T10:14:57.137Z,98556.73
2018-12-12T10:17:25.731Z,98561.75
2018-12-12T10:19:54.380Z,98553.95
2018-12-12T10:22:23.007Z,98548.02
2018-12-12T10:24:51.844Z,98549.80
2018-12-12T10:27:20.436Z,98545.63
2018-12-12T10:29:49.085Z,98537.75
2018-12-12T10:32:17.805Z,98542.56
2018-12-12T10:34:46.432Z,98543.45
2018-12-12T10:37:15.036Z,98550.94
2018-12-12T10:39:43.666Z,98546.15
2018-12-12T10:42:12.390Z,98545.93
2018-12-12T10:44:41.092Z,98550.61
2018-12-12T10:47:09.887Z,98547.52
2018-12-12T10:49:38.571Z,98547.91
2018-12-12T10:52:07.196Z,98544.18
2018-12-12T10:54:35.849Z,98542.76
2018-12-12T10:57:04.523Z,98533.12
2018-12-12T10:59:33.152Z,98535.02
2018-12-12T11:02:07.093Z,98539.02
2018-12-12T11:04:36.012Z,98537.63
2018-12-12T11:07:04.854Z,98530.70
2018-12-12T11:09:33.648Z,98531.81
2018-12-12T11:12:02.339Z,98527.23
2018-12-12T11:14:30.973Z,98531.69
2018-12-12T11:16:59.589Z,98527.98
2018-12-12T11:19:28.293Z,98536.00
2018-12-12T11:21:56.902Z,98534.92
2018-12-12T11:24:25.543Z,98532.31
2018-12-12T11:26:54.159Z,98533.42
2018-12-12T11:29:22.927Z,98532.12
2018-12-12T11:31:51.656Z,98529.95
2018-12-12T11:34:20.395Z,98525.25
2018-12-12T11:36:49.120Z,98523.25
2018-12-12T11:39:19.406Z,98525.69
2018-12-12T11:41:48.052Z,98525.06
2018-12-12T11:44:16.789Z,98531.98
2018-12-12T11:46:45.396Z,98526.65
2018-12-12T11:49:14.324Z,98521.75
2018-12-12T11:51:42.950Z,98516.73
2018-12-12T11:54:11.678Z,98521.02
2018-12-12T11:56:40.333Z,98521.31
2018-12-12T11:59:09.080Z,98511.64
2018-12-12T12:01:37.771Z,98517.23
2018-12-12T12:04:06.479Z,98517.02
2018-12-12T12:06:35.103Z,98508.50
2018-12-12T12:09:05.873Z,98506.00
2018-12-12T12:11:34.492Z,98508.50
2018-12-12T12:14:03.355Z,98510.44
2018-12-12T12:16:31.991Z,98510.28
2018-12-12T12:19:00.755Z,98499.19
2018-12-12T12:21:29.363Z,98502.05
2018-12-12T12:23:58.104Z,98491.30
2018-12-12T12:26:27.229Z,98484.91
2018-12-12T12:28:56.085Z,98480.38
2018-12-12T12:31:25.040Z,98480.99
2018-12-12T12:33:53.739Z,98474.88
2018-12-12T12:36:22.335Z,98477.33
2018-12-12T12:38:51.127Z,98465.62
2018-12-12T12:41:19.804Z,98469.38
2018-12-12T12:43:48.524Z,98459.88
2018-12-12T12:46:17.141Z,98461.43
2018-12-12T12:48:45.769Z,98460.08
2018-12-12T12:51:14.462Z,98464.58
2018-12-12T12:53:43.754Z,98457.89
2018-12-12T12:56:12.415Z,98460.28
2018-12-12T12:58:41.054Z,98457.59
2018-12-12T13:01:09.704Z,98462.52
2018-12-12T13:03:38.680Z,98461.02
2018-12-12T13:06:07.407Z,98464.98
2018-12-12T13:08:36.083Z,98467.10
2018-12-12T13:11:04.756Z,98455.17
2018-12-12T13:13:33.433Z,98459.23
2018-12-12T13:16:02.780Z,98462.23
2018-12-12T13:18:31.743Z,98455.21
2018-12-12T13:21:00.339Z,98462.56
2018-12-12T13:23:29.239Z,98456.72
2018-12-12T13:25:57.899Z,98460.70
2018-12-12T13:28:26.553Z,98460.53
2018-12-12T13:30:55.182Z,98460.48
2018-12-12T13:33:24.184Z,98454.69
2018-12-12T13:35:53.220Z,98463.15
2018-12-12T13:38:21.970Z,98451.56
2018-12-12T13:40:50.618Z,98452.33
2018-12-12T13:43:19.367Z,98449.70
2018-12-12T13:45:47.978Z,98458.33
2018-12-12T13:48:16.706Z,98458.22
2018-12-12T13:50:45.294Z,98452.50
2018-12-12T13:53:13.954Z,98452.05
2018-12-12T13:55:42.652Z,98452.24
2018-12-12T13:58:11.382Z,98452.77
2018-12-12T14:00:40.875Z,98456.41
2018-12-12T14:03:09.503Z,98452.38
2018-12-12T14:05:38.115Z,98441.14
2018-12-12T14:08:06.803Z,98444.21
2018-12-12T14:10:35.691Z,98442.84
2018-12-12T14:13:04.320Z,98446.50
2018-12-12T14:15:33.340Z,98444.19
2018-12-12T14:18:01.956Z,98449.44
2018-12-12T14:20:30.782Z,98448.97
2018-12-12T14:22:59.400Z,98455.91
2018-12-12T14:25:28.186Z,98447.42
2018-12-12T14:27:56.819Z,98449.53
2018-12-12T14:30:25.866Z,98454.17
2018-12-12T14:32:54.707Z,98456.07
2018-12-12T14:35:23.736Z,98453.10
2018-12-12T14:37:52.702Z,98452.68
2018-12-12T14:40:21.368Z,98453.77
2018-12-12T14:42:50.528Z,98448.41
2018-12-12T14:45:19.499Z,98453.67
2018-12-12T14:47:48.166Z,98460.47
2018-12-12T14:50:18.331Z,98461.86
2018-12-12T14:52:47.224Z,98458.68
2018-12-12T14:55:15.984Z,98464.72
2018-12-12T14:57:44.665Z,98468.07
2018-12-12T15:00:13.604Z,98462.66
2018-12-12T15:02:42.280Z,98467.81
2018-12-12T15:05:11.062Z,98458.90
2018-12-12T15:07:39.711Z,98457.38
2018-12-12T15:10:08.801Z,98460.80
2018-12-12T15:12:38.451Z,98454.00
2018-12-12T15:15:07.311Z,98465.41
2018-12-12T15:17:36.709Z,98459.52
2018-12-12T15:20:05.685Z,98463.48
2018-12-12T15:22:36.561Z,98464.06
2018-12-12T15:25:05.848Z,98464.53
2018-12-12T15:27:34.479Z,98463.92
2018-12-12T15:30:03.232Z,98467.13
2018-12-12T15:32:31.910Z,98468.29
2018-12-12T15:35:00.504Z,98467.55
2018-12-12T15:37:29.220Z,98473.27
2018-12-12T15:39:57.946Z,98477.09
2018-12-12T15:42:26.658Z,98477.98
2018-12-12T15:44:55.645Z,98468.02
2018-12-12T15:47:24.557Z,98469.48
2018-12-12T15:49:53.357Z,98474.55
2018-12-12T15:52:22.114Z,98476.81
2018-12-12T15:54:52.028Z,98477.86
2018-12-12T15:57:20.675Z,98478.51
2018-12-12T15:59:50.267Z,98478.23
2018-12-12T16:02:18.926Z,98478.23
2018-12-12T16:04:49.145Z,98477.25
2018-12-12T16:07:18.192Z,98477.00
2018-12-12T16:09:46.851Z,98479.12
2018-12-12T16:12:15.505Z,98481.06
2018-12-12T16:14:44.160Z,98476.61
2018-12-12T16:17:12.861Z,98479.41
2018-12-12T16:19:41.491Z,98476.70
2018-12-12T16:22:10.122Z,98479.97
2018-12-12T16:24:38.734Z,98478.23
2018-12-12T16:27:07.415Z,98479.85
2018-12-12T16:29:36.178Z,98485.25
2018-12-12T16:32:04.929Z,98481.70
2018-12-12T16:34:33.664Z,98477.42
2018-12-12T16:37:02.324Z,98486.77
2018-12-12T16:39:31.056Z,98479.70
2018-12-12T16:41:59.741Z,98476.91
2018-12-12T16:44:28.369Z,98467.52
2018-12-12T16:46:56.968Z,98469.33
2018-12-12T16:49:25.579Z,98468.24
2018-12-12T16:51:54.323Z,98464.82
2018-12-12T16:54:22.931Z,98467.60
2018-12-12T16:56:51.563Z,98469.13
2018-12-12T16:59:20.331Z,98474.02
2018-12-12T17:01:49.027Z,98472.03
2018-12-12T17:04:17.703Z,98470.89
2018-12-12T17:06:46.456Z,98469.95
2018-12-12T17:09:15.817Z,98464.47
2018-12-12T17:11:44.463Z,98462.20
2018-12-12T17:14:13.145Z,98466.66
2018-12-12T17:16:41.903Z,98462.97
2018-12-12T17:19:10.531Z,98464.67
2018-12-12T17:21:39.192Z,98461.97
2018-12-12T17:24:07.908Z,98459.55
2018-12-12T17:26:36.562Z,98458.47
2018-12-12T17:29:05.351Z,98457.70
2018-12-12T17:31:34.153Z,98457.03
2018-12-12T17:34:02.964Z,98455.03
2018-12-12T17:36:31.807Z,98462.93
2018-12-12T17:39:00.560Z,98457.31
2018-12-12T17:41:30.735Z,98457.52
2018-12-12T17:44:00.240Z,98457.34
2018-12-12T17:46:28.947Z,98462.99
2018-12-12T17:48:58.491Z,98463.65
2018-12-12T17:51:27.858Z,98457.36
2018-12-12T17:53:56.920Z,98462.47
2018-12-12T17:56:25.753Z,98461.37
2018-12-12T17:58:54.540Z,98461.66
2018-12-12T18:01:23.492Z,98454.04
2018-12-12T18:03:52.442Z,98450.81
2018-12-12T18:06:21.186Z,98454.92
2018-12-12T18:08:50.172Z,98458.27
2018-12-12T18:11:19.243Z,98462.34
2018-12-12T18:13:47.987Z,98456.02
2018-12-12T18:16:16.758Z,98462.08
2018-12-12T18:18:45.483Z,98465.14
2018-12-12T18:21:14.398Z,98464.98
2018-12-12T18:23:43.256Z,98465.02
2018-12-12T18:26:12.236Z,98466.39
2018-12-12T18:28:40.964Z,98464.05
2018-12-12T18:31:09.797Z,98456.83
2018-12-12T18:33:38.723Z,98456.02
2018-12-12T18:36:07.464Z,98457.47
2018-12-12T18:38:36.352Z,98463.77
2018-12-12T18:41:05.116Z,98462.20
2018-12-12T18:43:33.827Z,98457.23
2018-12-12T18:46:02.923Z,98462.15
2018-12-12T18:48:31.629Z,98463.64
2018-12-12T18:51:00.380Z,98454.66
2018-12-12T18:53:29.619Z,98463.94
2018-12-12T18:55:58.425Z,98461.46
2018-12-12T18:58:27.220Z,98460.17
2018-12-12T19:00:58.801Z,98455.90
2018-12-12T19:03:27.880Z,98459.17
2018-12-12T19:06:02.246Z,98465.78
2018-12-12T19:08:30.980Z,98466.27
2018-12-12T19:10:59.966Z,98463.77
2018-12-12T19:13:28.709Z,98463.98
2018-12-12T19:15:57.472Z,98463.48
2018-12-12T19:18:26.320Z,98459.37
2018-12-12T19:21:00.032Z,98458.52
2018-12-12T19:23:26.536Z,98463.81
2018-12-12T19:25:55.585Z,98465.06
2018-12-12T19:28:24.451Z,98462.63
2018-12-12T19:30:53.153Z,98465.26
2018-12-12T19:33:21.764Z,98462.39
2018-12-12T19:35:50.571Z,98458.92
2018-12-12T19:38:19.272Z,98466.11
2018-12-12T19:40:47.988Z,98461.47
2018-12-12T19:43:17.152Z,98468.32
2018-12-12T19:45:45.965Z,98469.59
2018-12-12T19:48:14.684Z,98466.09
2018-12-12T19:50:43.590Z,98461.12
2018-12-12T19:53:12.463Z,98463.48
2018-12-12T19:55:41.268Z,98463.13
2018-12-12T19:58:10.034Z,98459.20
2018-12-12T20:00:38.647Z,98462.99
2018-12-12T20:03:07.442Z,98454.64
2018-12-12T20:05:41.351Z,98452.42
2018-12-12T20:08:07.028Z,98455.70
2018-12-12T20:10:35.949Z,98456.87
2018-12-12T20:13:04.945Z,98447.82
2018-12-12T20:15:38.844Z,98455.98
2018-12-12T20:18:07.784Z,98446.09
2018-12-12T20:20:36.520Z,98453.06
2018-12-12T20:23:05.299Z,98446.86
2018-12-12T20:25:34.008Z,98458.06
2018-12-12T20:28:02.785Z,98461.16
2018-12-12T20:30:35.267Z,98457.27
2018-12-12T20:33:02.303Z,98451.44
2018-12-12T20:35:31.064Z,98455.02
2018-12-12T20:37:59.933Z,98454.92
2018-12-12T20:40:28.747Z,98453.21
2018-12-12T20:42:57.628Z,98453.59
2018-12-12T20:45:26.319Z,98457.03
2018-12-12T20:47:55.025Z,98459.31
2018-12-12T20:50:23.674Z,98458.55
2018-12-12T20:52:52.436Z,98461.21
2018-12-12T20:55:21.156Z,98460.93
2018-12-12T21:00:39.460Z,98456.46
2018-12-12T21:03:08.270Z,98450.36
2018-12-12T21:05:36.938Z,98452.09
2018-12-12T21:08:05.551Z,98450.89
2018-12-12T21:10:34.437Z,98451.03
2018-12-12T21:13:03.104Z,98455.53
2018-12-12T21:15:31.843Z,98451.17
2018-12-12T21:18:00.512Z,98449.53
2018-12-12T21:20:29.680Z,98446.37
2018-12-12T21:22:58.334Z,98453.89
2018-12-12T21:25:29.258Z,98457.61
2018-12-12T21:27:58.147Z,98446.64
2018-12-12T21:30:27.003Z,98444.30
2018-12-12T21:32:55.872Z,98443.84
2018-12-12T21:35:25.131Z,98442.62
2018-12-12T21:37:53.896Z,98444.63
2018-12-12T21:40:22.663Z,98438.35
2018-12-12T21:42:51.379Z,98437.22
2018-12-12T21:45:20.195Z,98442.78
2018-12-12T21:47:48.866Z,98438.87
2018-12-12T21:50:17.553Z,98437.63
2018-12-12T21:52:46.289Z,98439.88
2018-12-12T21:55:15.023Z,98437.83
2018-12-12T21:57:43.776Z,98439.67
2018-12-12T22:00:12.651Z,98438.68
2018-12-12T22:02:41.395Z,98437.14
2018-12-12T22:05:10.172Z,98433.51
2018-12-12T22:07:38.879Z,98436.00
2018-12-12T22:10:07.684Z,98433.58
2018-12-12T22:12:36.436Z,98431.61
2018-12-12T22:15:06.831Z,98429.19
2018-12-12T22:17:35.635Z,98431.53
2018-12-12T22:20:04.652Z,98430.80
2018-12-12T22:22:33.340Z,98426.90
2018-12-12T22:25:02.105Z,98426.16
2018-12-12T22:27:30.911Z,98417.81
2018-12-12T22:29:59.615Z,98420.55
2018-12-12T22:32:28.387Z,98423.34
2018-12-12T22:34:57.067Z,98415.52
2018-12-12T22:37:25.822Z,98422.41
2018-12-12T22:39:54.554Z,98423.17
2018-12-12T22:42:23.440Z,98419.94
2018-12-12T22:44:52.114Z,98421.79
2018-12-12T22:47:20.799Z,98421.56
2018-12-12T22:49:49.480Z,98424.48
2018-12-12T22:52:18.243Z,98419.75
2018-12-12T22:54:46.963Z,98412.53
2018-12-12T22:57:15.779Z,98417.39
2018-12-12T22:59:45.060Z,98417.61
2018-12-12T23:02:13.816Z,98414.33
2018-12-12T23:04:42.546Z,98412.13
2018-12-12T23:07:11.304Z,98413.78
2018-12-12T23:09:40.115Z,98408.91
2018-12-12T23:12:08.887Z,98411.75
2018-12-12T23:14:37.593Z,98406.95
2018-12-12T23:17:06.316Z,98404.14
2018-12-12T23:19:35.185Z,98407.11
2018-12-12T23:22:03.924Z,98407.20
2018-12-12T23:24:32.713Z,98412.73
2018-12-12T23:27:01.423Z,98407.66
2018-12-12T23:29:30.131Z,98405.30
2018-12-12T23:31:58.842Z,98401.91
2018-12-12T23:34:27.525Z,98402.01
2018-12-12T23:36:56.230Z,98396.34
2018-12-12T23:39:25.740Z,98392.16
2018-12-12T23:41:54.678Z,98390.73
2018-12-12T23:44:23.404Z,98394.13
2018-12-12T23:46:52.137Z,98388.65
2018-12-12T23:49:20.879Z,98385.06
2018-12-12T23:51:49.571Z,98384.31
2018-12-12T23:54:18.444Z,98387.75
2018-12-12T23:56:47.158Z,98382.56
2018-12-12T23:59:15.865Z,98380.31
